createdAt,value
2018-10-01T00:01:53.708Z,98602.80
2018-10-01T00:04:58.794Z,98612.77
2018-10-01T00:08:04.011Z,98609.94
2018-10-01T00:11:09.008Z,98617.09
2018-10-01T00:14:14.790Z,98610.42
2018-10-01T00:17:19.826Z,98622.45
2018-10-01T00:20:31.305Z,98628.97
2018-10-01T00:23:36.600Z,98629.08
2018-10-01T00:26:41.613Z,98628.19
2018-10-01T00:29:46.628Z,98629.70
2018-10-01T00:32:52.372Z,98633.73
2018-10-01T00:35:58.332Z,98631.08
2018-10-01T00:39:05.647Z,98623.67
2018-10-01T00:42:10.677Z,98630.53
2018-10-01T00:45:15.751Z,98628.77
2018-10-01T00:48:20.814Z,98626.98
2018-10-01T00:51:26.997Z,98616.25
2018-10-01T00:54:32.038Z,98623.01
2018-10-01T00:57:37.061Z,98620.06
2018-10-01T01:00:42.085Z,98618.30
2018-10-01T01:03:47.077Z,98614.94
2018-10-01T01:06:52.162Z,98612.64
2018-10-01T01:09:57.902Z,98620.70
2018-10-01T01:13:04.977Z,98614.71
2018-10-01T01:16:10.767Z,98621.33
2018-10-01T01:19:16.490Z,98629.48
2018-10-01T01:22:21.560Z,98632.17
2018-10-01T01:25:26.585Z,98637.67
2018-10-01T01:28:32.649Z,98622.61
2018-10-01T01:31:37.687Z,98624.77
2018-10-01T01:34:42.726Z,98625.27
2018-10-01T01:37:47.794Z,98623.89
2018-10-01T01:40:53.502Z,98617.75
2018-10-01T01:43:58.510Z,98616.86
2018-10-01T01:47:03.569Z,98611.86
2018-10-01T01:50:09.415Z,98623.33
2018-10-01T01:53:16.219Z,98617.32
2018-10-01T01:56:21.316Z,98618.45
2018-10-01T01:59:26.397Z,98622.53
2018-10-01T02:02:31.506Z,98623.33
2018-10-01T02:05:36.563Z,98612.39
2018-10-01T02:08:41.605Z,98604.45
2018-10-01T02:11:47.377Z,98610.84
2018-10-01T02:14:52.938Z,98608.58
2018-10-01T02:17:57.961Z,98610.89
2018-10-01T02:21:04.626Z,98606.53
2018-10-01T02:24:09.659Z,98607.31
2018-10-01T02:27:14.818Z,98610.89
2018-10-01T02:33:55.381Z,98604.86
2018-10-01T02:37:00.378Z,98611.39
2018-10-01T02:40:05.412Z,98611.04
2018-10-01T02:43:10.540Z,98612.96
2018-10-01T02:46:15.546Z,98614.73
2018-10-01T02:49:20.578Z,98609.39
2018-10-01T02:52:31.432Z,98615.53
2018-10-01T02:55:36.473Z,98615.56
2018-10-01T02:58:42.346Z,98614.92
2018-10-01T03:01:47.362Z,98614.30
2018-10-01T03:04:52.540Z,98614.79
2018-10-01T03:07:58.671Z,98613.41
2018-10-01T03:11:03.681Z,98613.55
2018-10-01T03:14:10.416Z,98606.87
2018-10-01T03:17:16.219Z,98608.44
2018-10-01T03:20:21.244Z,98601.77
2018-10-01T03:23:26.272Z,98602.70
2018-10-01T03:26:32.437Z,98614.33
2018-10-01T03:29:38.600Z,98619.16
2018-10-01T03:32:44.370Z,98613.19
2018-10-01T03:35:50.237Z,98607.05
2018-10-01T03:38:55.309Z,98608.95
2018-10-01T03:42:00.363Z,98612.53
2018-10-01T03:45:05.414Z,98615.72
2018-10-01T03:48:10.419Z,98612.56
2018-10-01T03:51:16.458Z,98620.96
2018-10-01T03:54:21.606Z,98618.16
2018-10-01T03:57:26.602Z,98617.91
2018-10-01T04:00:32.693Z,98629.27
2018-10-01T04:03:37.693Z,98628.88
2018-10-01T04:06:42.694Z,98638.61
2018-10-01T04:09:47.961Z,98640.38
2018-10-01T04:12:53.793Z,98649.47
2018-10-01T04:15:58.807Z,98640.38
2018-10-01T04:19:05.509Z,98644.36
2018-10-01T04:22:11.385Z,98646.55
2018-10-01T04:25:18.054Z,98652.55
2018-10-01T04:28:24.116Z,98656.38
2018-10-01T04:31:29.110Z,98657.78
2018-10-01T04:34:34.813Z,98657.27
2018-10-01T04:37:40.496Z,98654.70
2018-10-01T04:40:46.237Z,98653.29
2018-10-01T04:43:51.293Z,98654.84
2018-10-01T04:46:57.413Z,98657.50
2018-10-01T04:53:20.908Z,98659.81
2018-10-01T04:56:27.256Z,98659.56
2018-10-01T04:59:33.081Z,98664.68
2018-10-01T05:02:38.401Z,98664.68
2018-10-01T05:05:44.557Z,98665.96
2018-10-01T05:08:49.738Z,98670.30
2018-10-01T05:15:02.934Z,98674.89
2018-10-01T05:18:07.930Z,98677.72
2018-10-01T05:21:13.225Z,98679.78
2018-10-01T05:24:19.378Z,98686.41
2018-10-01T05:27:24.858Z,98684.61
2018-10-01T05:30:30.571Z,98682.05
2018-10-01T05:33:37.336Z,98691.27
2018-10-01T05:36:45.585Z,98695.34
2018-10-01T05:39:51.699Z,98697.55
2018-10-01T05:42:57.986Z,98708.92
2018-10-01T05:46:03.796Z,98713.78
2018-10-01T05:49:10.885Z,98714.53
2018-10-01T05:52:19.017Z,98717.88
2018-10-01T05:55:30.388Z,98718.63
2018-10-01T05:58:38.819Z,98730.89
2018-10-01T06:01:49.120Z,98738.06
2018-10-01T06:04:57.046Z,98739.34
2018-10-01T06:08:06.572Z,98742.75
2018-10-01T06:11:18.813Z,98736.86
2018-10-01T06:14:33.979Z,98736.84
2018-10-01T06:17:46.238Z,98745.39
2018-10-01T06:20:54.057Z,98742.05
2018-10-01T06:24:05.930Z,98751.91
2018-10-01T06:27:23.915Z,98749.72
2018-10-01T06:30:33.927Z,98756.36
2018-10-01T06:33:45.382Z,98754.64
2018-10-01T06:36:53.532Z,98763.58
2018-10-01T06:40:03.537Z,98762.86
2018-10-01T06:43:14.630Z,98763.59
2018-10-01T06:46:22.142Z,98766.30
2018-10-01T06:49:29.472Z,98766.48
2018-10-01T06:52:39.830Z,98771.40
2018-10-01T06:55:48.881Z,98778.12
2018-10-01T06:58:59.052Z,98777.83
2018-10-01T07:02:07.384Z,98776.45
2018-10-01T07:05:17.670Z,98781.74
2018-10-01T07:08:26.721Z,98781.17
2018-10-01T07:11:38.126Z,98786.45
2018-10-01T07:14:51.166Z,98792.55
2018-10-01T07:18:01.053Z,98800.88
2018-10-01T07:21:10.213Z,98804.92
2018-10-01T07:24:20.558Z,98805.72
2018-10-01T07:27:29.565Z,98811.34
2018-10-01T07:30:40.389Z,98819.19
2018-10-01T07:33:49.459Z,98822.23
2018-10-01T07:36:57.614Z,98816.20
2018-10-01T07:40:02.658Z,98821.17
2018-10-01T07:43:08.582Z,98830.14
2018-10-01T07:46:13.870Z,98830.64
2018-10-01T07:49:18.825Z,98829.84
2018-10-01T07:52:24.466Z,98833.74
2018-10-01T07:55:29.461Z,98831.09
2018-10-01T07:58:35.634Z,98827.80
2018-10-01T08:01:40.638Z,98841.74
2018-10-01T08:04:46.733Z,98841.16
2018-10-01T08:07:51.771Z,98850.28
2018-10-01T08:10:56.867Z,98847.56
2018-10-01T08:14:04.210Z,98854.32
2018-10-01T08:17:09.161Z,98857.01
2018-10-01T08:20:14.306Z,98854.95
2018-10-01T08:23:24.145Z,98861.59
2018-10-01T08:26:34.301Z,98863.42
2018-10-01T08:29:42.508Z,98867.05
2018-10-01T08:32:52.118Z,98876.78
2018-10-01T08:36:00.513Z,98880.87
2018-10-01T08:39:13.268Z,98881.09
2018-10-01T08:42:23.376Z,98885.99
2018-10-01T08:45:33.390Z,98889.75
2018-10-01T08:48:51.704Z,98890.41
2018-10-01T08:52:11.924Z,98896.02
2018-10-01T08:55:19.408Z,98902.87
2018-10-01T08:58:31.835Z,98894.51
2018-10-01T09:01:44.239Z,98893.19
2018-10-01T09:04:57.179Z,98894.54
2018-10-01T09:08:09.272Z,98894.13
2018-10-01T09:11:17.417Z,98896.70
2018-10-01T09:14:22.736Z,98902.87
2018-10-01T09:17:27.779Z,98903.57
2018-10-01T09:20:33.113Z,98906.54
2018-10-01T09:23:42.189Z,98906.16
2018-10-01T09:26:51.543Z,98904.06
2018-10-01T09:30:01.815Z,98908.21
2018-10-01T09:33:12.129Z,98903.92
2018-10-01T09:36:24.501Z,98900.94
2018-10-01T09:39:46.799Z,98915.30
2018-10-01T09:42:58.414Z,98908.81
2018-10-01T09:46:15.464Z,98917.80
2018-10-01T09:49:21.883Z,98912.94
2018-10-01T09:52:31.602Z,98917.06
2018-10-01T09:55:40.889Z,98929.88
2018-10-01T09:58:52.031Z,98926.70
2018-10-01T10:02:06.284Z,98926.70
2018-10-01T10:05:18.708Z,98915.95
2018-10-01T10:08:30.183Z,98916.27
2018-10-01T10:11:37.830Z,98925.80
2018-10-01T10:14:47.598Z,98919.70
2018-10-01T10:17:55.772Z,98928.98
2018-10-01T10:21:05.543Z,98930.77
2018-10-01T10:24:15.194Z,98928.08
2018-10-01T10:27:24.706Z,98933.55
2018-10-01T10:30:39.521Z,98933.95
2018-10-01T10:33:49.775Z,98939.42
2018-10-01T10:36:59.710Z,98946.25
2018-10-01T10:40:09.995Z,98944.77
2018-10-01T10:43:20.762Z,98952.36
2018-10-01T10:46:28.355Z,98945.38
2018-10-01T10:49:37.828Z,98943.67
2018-10-01T10:52:50.858Z,98946.13
2018-10-01T11:08:07.986Z,98930.55
2018-10-01T11:11:17.784Z,98928.64
2018-10-01T11:14:27.831Z,98935.39
2018-10-01T11:17:39.744Z,98926.27
2018-10-01T11:20:50.222Z,98928.84
2018-10-01T11:24:03.483Z,98927.70
2018-10-01T11:27:19.023Z,98918.66
2018-10-01T11:30:36.502Z,98926.13
2018-10-01T11:33:48.584Z,98925.89
2018-10-01T11:36:56.912Z,98935.91
2018-10-01T11:40:07.963Z,98936.64
2018-10-01T11:43:18.438Z,98932.08
2018-10-01T11:46:26.041Z,98937.11
2018-10-01T11:49:38.022Z,98943.80
2018-10-01T11:52:48.390Z,98941.34
2018-10-01T11:55:56.891Z,98942.69
2018-10-01T11:59:05.687Z,98938.82
2018-10-01T12:02:16.474Z,98938.18
2018-10-01T12:05:27.501Z,98942.13
2018-10-01T12:08:37.713Z,98942.98
2018-10-01T12:15:09.137Z,98941.14
2018-10-01T12:18:19.754Z,98939.92
2018-10-01T12:21:28.536Z,98928.72
2018-10-01T12:24:46.234Z,98933.97
2018-10-01T12:27:56.679Z,98938.25
2018-10-01T12:31:06.814Z,98936.78
2018-10-01T12:34:19.206Z,98933.41
2018-10-01T12:37:28.687Z,98936.63
2018-10-01T12:40:36.622Z,98934.05
2018-10-01T12:43:46.730Z,98916.56
2018-10-01T12:46:57.326Z,98918.27
2018-10-01T12:50:09.330Z,98916.09
2018-10-01T12:53:20.173Z,98919.89
2018-10-01T12:56:33.445Z,98914.42
2018-10-01T12:59:43.062Z,98913.45
2018-10-01T13:02:50.090Z,98912.81
2018-10-01T13:06:02.851Z,98919.52
2018-10-01T13:09:12.460Z,98912.64
2018-10-01T13:12:19.059Z,98910.94
2018-10-01T13:15:34.420Z,98916.78
2018-10-01T13:18:44.794Z,98926.19
2018-10-01T13:21:52.591Z,98921.94
2018-10-01T13:25:16.311Z,98919.02
2018-10-01T13:28:27.017Z,98930.77
2018-10-01T13:31:35.847Z,98931.52
2018-10-01T13:34:43.956Z,98919.19
2018-10-01T13:37:51.828Z,98906.14
2018-10-01T13:41:01.103Z,98902.73
2018-10-01T13:44:13.340Z,98913.02
2018-10-01T13:47:25.387Z,98917.90
2018-10-01T13:50:37.984Z,98919.09
2018-10-01T13:54:08.178Z,98915.45
2018-10-01T13:57:19.158Z,98922.73
2018-10-01T14:00:27.809Z,98923.36
2018-10-01T14:03:38.495Z,98918.48
2018-10-01T14:06:50.282Z,98924.16
2018-10-01T14:10:02.245Z,98925.14
2018-10-01T14:13:11.479Z,98923.85
2018-10-01T14:16:22.785Z,98922.39
2018-10-01T14:19:32.246Z,98920.22
2018-10-01T14:22:42.709Z,98927.91
2018-10-01T14:25:52.202Z,98948.36
2018-10-01T14:29:01.984Z,98950.77
2018-10-01T14:32:11.039Z,98966.31
2018-10-01T14:35:18.961Z,98970.52
2018-10-01T14:38:28.660Z,98983.71
2018-10-01T14:41:37.475Z,99002.41
2018-10-01T14:44:50.251Z,99001.84
2018-10-01T14:48:01.137Z,99014.08
2018-10-01T14:51:11.335Z,99011.30
2018-10-01T14:54:21.450Z,99015.77
2018-10-01T14:57:32.682Z,99018.84
2018-10-01T15:00:45.530Z,99026.20
2018-10-01T15:03:53.266Z,99026.20
2018-10-01T15:07:01.965Z,99026.99
2018-10-01T15:10:09.907Z,99025.50
2018-10-01T15:13:24.556Z,99036.19
2018-10-01T15:16:36.788Z,99032.91
2018-10-01T15:19:46.649Z,99033.01
2018-10-01T15:23:00.449Z,99036.45
2018-10-01T15:26:09.445Z,99043.95
2018-10-01T15:29:14.465Z,99048.55
2018-10-01T15:32:20.834Z,99065.48
2018-10-01T15:35:25.985Z,99074.41
2018-10-01T15:38:35.870Z,99070.70
2018-10-01T15:41:40.915Z,99084.69
2018-10-01T15:44:47.172Z,99101.70
2018-10-01T15:47:53.561Z,99109.28
2018-10-01T15:50:59.645Z,99109.74
2018-10-01T15:54:05.775Z,99108.02
2018-10-01T15:57:11.578Z,99112.73
2018-10-01T16:00:16.563Z,99116.92
2018-10-01T16:03:22.460Z,99117.73
2018-10-01T16:06:28.274Z,99119.56
2018-10-01T16:09:33.652Z,99115.66
2018-10-01T16:12:39.529Z,99125.09
2018-10-01T16:15:45.248Z,99123.60
2018-10-01T16:18:50.367Z,99119.38
2018-10-01T16:21:56.517Z,99121.19
2018-10-01T16:25:01.538Z,99130.40
2018-10-01T16:28:11.013Z,99131.83
2018-10-01T16:31:23.500Z,99130.66
2018-10-01T16:34:29.563Z,99129.77
2018-10-01T16:37:40.872Z,99138.38
2018-10-01T16:40:48.159Z,99146.91
2018-10-01T16:43:56.504Z,99151.31
2018-10-01T16:47:03.129Z,99158.14
2018-10-01T16:50:10.785Z,99148.58
2018-10-01T16:53:18.212Z,99156.28
2018-10-01T16:56:25.629Z,99163.47
2018-10-01T16:59:32.335Z,99167.64
2018-10-01T17:02:38.797Z,99167.10
2018-10-01T17:05:44.240Z,99173.48
2018-10-01T17:08:52.132Z,99182.22
2018-10-01T17:11:57.147Z,99184.92
2018-10-01T17:15:02.219Z,99187.45
2018-10-01T17:18:07.265Z,99199.52
2018-10-01T17:21:13.675Z,99193.13
2018-10-01T17:24:20.994Z,99195.30
2018-10-01T17:27:26.069Z,99197.38
2018-10-01T17:30:32.090Z,99203.16
2018-10-01T17:33:37.124Z,99209.36
2018-10-01T17:36:44.606Z,99213.52
2018-10-01T17:40:26.174Z,99223.80
2018-10-01T17:43:56.190Z,99224.36
2018-10-01T17:47:13.089Z,99232.09
2018-10-01T17:50:18.672Z,99237.27
2018-10-01T17:53:25.968Z,99248.20
2018-10-01T17:56:31.793Z,99255.42
2018-10-01T17:59:38.031Z,99264.81
2018-10-01T18:02:43.081Z,99266.99
2018-10-01T18:05:48.936Z,99268.43
2018-10-01T18:08:54.807Z,99269.48
2018-10-01T18:12:00.991Z,99277.43
2018-10-01T18:15:07.284Z,99274.64
2018-10-01T18:18:12.483Z,99279.53
2018-10-01T18:21:18.100Z,99290.84
2018-10-01T18:24:23.205Z,99284.56
2018-10-01T18:27:28.932Z,99298.03
2018-10-01T18:30:34.151Z,99296.75
2018-10-01T18:33:40.030Z,99307.28
2018-10-01T18:36:45.264Z,99303.44
2018-10-01T18:39:50.418Z,99303.42
2018-10-01T18:42:56.525Z,99299.07
2018-10-01T18:46:02.793Z,99307.09
2018-10-01T18:49:07.829Z,99314.02
2018-10-01T18:52:14.137Z,99320.81
2018-10-01T18:55:19.890Z,99321.31
2018-10-01T18:58:25.645Z,99328.13
2018-10-01T19:01:35.940Z,99321.31
2018-10-01T19:04:41.057Z,99322.50
2018-10-01T19:07:48.016Z,99321.35
2018-10-01T19:10:54.143Z,99319.61
2018-10-01T19:14:02.834Z,99322.89
2018-10-01T19:17:09.008Z,99323.39
2018-10-01T19:20:15.189Z,99332.37
2018-10-01T19:23:21.329Z,99338.39
2018-10-01T19:26:27.598Z,99348.64
2018-10-01T19:29:32.746Z,99348.99
2018-10-01T19:32:39.500Z,99348.73
2018-10-01T19:35:45.916Z,99355.48
2018-10-01T19:38:51.114Z,99360.49
2018-10-01T19:41:57.098Z,99366.86
2018-10-01T19:45:03.711Z,99370.42
2018-10-01T19:48:09.991Z,99372.34
2018-10-01T19:51:18.026Z,99371.09
2018-10-01T19:54:31.411Z,99371.14
2018-10-01T19:57:37.569Z,99377.05
2018-10-01T20:00:43.758Z,99380.35
2018-10-01T20:03:49.997Z,99391.38
2018-10-01T20:06:55.150Z,99391.16
2018-10-01T20:10:05.830Z,99390.94
2018-10-01T20:13:15.200Z,99390.92
2018-10-01T20:16:24.424Z,99399.66
2018-10-01T20:19:30.882Z,99399.05
2018-10-01T20:22:36.609Z,99399.46
2018-10-01T20:25:42.810Z,99399.07
2018-10-01T20:28:49.232Z,99406.69
2018-10-01T20:31:54.820Z,99399.07
2018-10-01T20:35:00.666Z,99411.16
2018-10-01T20:38:05.576Z,99404.91
2018-10-01T20:41:11.410Z,99408.45
2018-10-01T20:44:17.387Z,99411.24
2018-10-01T20:47:23.033Z,99411.26
2018-10-01T20:50:29.302Z,99410.38
2018-10-01T20:53:35.186Z,99412.46
2018-10-01T20:56:41.389Z,99413.56
2018-10-01T20:59:47.156Z,99410.72
2018-10-01T21:02:53.953Z,99425.45
2018-10-01T21:05:58.974Z,99430.88
2018-10-01T21:09:07.701Z,99434.78
2018-10-01T21:15:05.159Z,99441.91
2018-10-01T21:18:11.877Z,99434.07
2018-10-01T21:21:17.747Z,99435.27
2018-10-01T21:24:23.393Z,99436.28
2018-10-01T21:27:30.676Z,99430.11
2018-10-01T21:30:35.728Z,99424.69
2018-10-01T21:33:40.833Z,99432.88
2018-10-01T21:36:47.047Z,99439.59
2018-10-01T21:40:02.573Z,99439.77
2018-10-01T21:43:07.578Z,99444.42
2018-10-01T21:46:13.784Z,99438.44
2018-10-01T21:49:18.825Z,99443.02
2018-10-01T21:52:25.657Z,99442.75
2018-10-01T21:55:31.658Z,99444.03
2018-10-01T21:58:37.721Z,99447.52
2018-10-01T22:01:42.724Z,99439.08
2018-10-01T22:04:48.443Z,99449.63
2018-10-01T22:07:54.253Z,99450.91
2018-10-01T22:11:00.335Z,99451.67
2018-10-01T22:14:06.555Z,99453.28
2018-10-01T22:17:12.337Z,99447.74
2018-10-01T22:20:18.206Z,99454.08
2018-10-01T22:23:23.189Z,99456.64
2018-10-01T22:26:28.991Z,99453.48
2018-10-01T22:29:34.666Z,99462.38
2018-10-01T22:32:40.797Z,99451.48
2018-10-01T22:35:48.115Z,99447.53
2018-10-01T22:38:53.297Z,99452.93
2018-10-01T22:41:59.076Z,99452.09
2018-10-01T22:45:04.697Z,99451.42
2018-10-01T22:48:10.824Z,99449.58
2018-10-01T22:51:16.634Z,99451.90
2018-10-01T22:54:22.625Z,99448.89
2018-10-01T22:57:27.634Z,99448.50
2018-10-01T23:00:37.477Z,99449.64
2018-10-01T23:03:42.713Z,99455.88
2018-10-01T23:06:48.905Z,99459.25
2018-10-01T23:09:53.924Z,99457.35
2018-10-01T23:13:00.033Z,99459.95
2018-10-01T23:16:06.098Z,99460.86
2018-10-01T23:19:12.050Z,99460.23
2018-10-01T23:22:18.082Z,99473.56
2018-10-01T23:25:23.728Z,99475.52
2018-10-01T23:28:29.643Z,99466.59
2018-10-01T23:31:35.651Z,99470.36
2018-10-01T23:34:41.813Z,99470.98
2018-10-01T23:37:46.817Z,99466.44
2018-10-01T23:40:52.621Z,99469.86
2018-10-01T23:43:58.754Z,99464.51
2018-10-01T23:47:04.948Z,99467.47
2018-10-01T23:50:11.353Z,99465.13
2018-10-01T23:53:17.242Z,99469.84
2018-10-01T23:56:22.302Z,99466.09
2018-10-01T23:59:27.344Z,99462.66
